createdAt,value
2019-03-25T00:01:13.784Z,100598.64
2019-03-25T00:03:45.363Z,100605.45
2019-03-25T00:06:16.561Z,100593.37
2019-03-25T00:08:47.796Z,100604.36
2019-03-25T00:11:19.258Z,100542.07
2019-03-25T00:13:50.484Z,100589.81
2019-03-25T00:16:21.672Z,100582.65
2019-03-25T00:18:52.891Z,100578.42
2019-03-25T00:21:24.395Z,100582.31
2019-03-25T00:23:55.595Z,100581.45
2019-03-25T00:26:26.818Z,100577.56
2019-03-25T00:28:57.999Z,100584.68
2019-03-25T00:31:29.510Z,100580.81
2019-03-25T00:34:00.749Z,100579.03
2019-03-25T00:36:31.844Z,100580.07
2019-03-25T00:39:03.335Z,100572.72
2019-03-25T00:41:34.676Z,100583.55
2019-03-25T00:44:06.053Z,100575.32
2019-03-25T00:46:37.345Z,100576.59
2019-03-25T00:49:08.545Z,100581.26
2019-03-25T00:51:39.744Z,100582.16
2019-03-25T00:54:10.952Z,100576.86
2019-03-25T00:56:42.153Z,100578.83
2019-03-25T00:59:13.918Z,100576.59
2019-03-25T01:01:45.429Z,100574.54
2019-03-25T01:04:16.627Z,100577.33
2019-03-25T01:06:47.803Z,100583.11
2019-03-25T01:09:19.070Z,100586.59
2019-03-25T01:11:50.164Z,100577.61
2019-03-25T01:14:21.348Z,100581.53
2019-03-25T01:16:52.551Z,100581.70
2019-03-25T01:19:23.826Z,100580.47
2019-03-25T01:21:55.026Z,100585.15
2019-03-25T01:24:26.206Z,100580.66
2019-03-25T01:26:57.767Z,100569.83
2019-03-25T01:29:29.077Z,100576.86
2019-03-25T01:32:00.279Z,100572.34
2019-03-25T01:34:31.560Z,100564.55
2019-03-25T01:37:02.759Z,100567.84
2019-03-25T01:39:33.960Z,100564.31
2019-03-25T01:42:05.154Z,100560.44
2019-03-25T01:44:36.403Z,100555.47
2019-03-25T01:47:07.678Z,100556.28
2019-03-25T01:49:38.957Z,100550.62
2019-03-25T01:52:10.075Z,100549.84
2019-03-25T01:54:41.272Z,100541.59
2019-03-25T01:57:12.461Z,100536.33
2019-03-25T01:59:43.992Z,100537.53
2019-03-25T02:02:15.099Z,100536.17
2019-03-25T02:04:46.237Z,100532.55
2019-03-25T02:07:17.447Z,100540.36
2019-03-25T02:09:48.820Z,100526.84
2019-03-25T02:12:20.011Z,100523.84
2019-03-25T02:14:51.202Z,100530.05
2019-03-25T02:17:23.044Z,100525.70
2019-03-25T02:19:54.114Z,100530.53
2019-03-25T02:22:25.345Z,100526.78
2019-03-25T02:24:56.476Z,100525.44
2019-03-25T02:27:27.598Z,100531.39
2019-03-25T02:29:58.747Z,100525.06
2019-03-25T02:32:29.819Z,100509.99
2019-03-25T02:35:01.198Z,100510.56
2019-03-25T02:37:32.615Z,100514.31
2019-03-25T02:40:03.654Z,100508.68
2019-03-25T02:42:34.779Z,100506.88
2019-03-25T02:45:06.660Z,100500.02
2019-03-25T02:47:37.607Z,100506.86
2019-03-25T02:50:08.975Z,100501.08
2019-03-25T02:52:40.193Z,100498.02
2019-03-25T02:55:11.398Z,100498.45
2019-03-25T02:57:42.460Z,100491.64
2019-03-25T03:00:14.056Z,100492.64
2019-03-25T03:02:45.171Z,100493.53
2019-03-25T03:05:16.401Z,100487.95
2019-03-25T03:07:47.598Z,100489.98
2019-03-25T03:10:18.844Z,100480.61
2019-03-25T03:12:49.937Z,100480.60
2019-03-25T03:15:21.355Z,100477.23
2019-03-25T03:17:52.446Z,100476.85
2019-03-25T03:20:23.569Z,100480.72
2019-03-25T03:22:54.770Z,100469.11
2019-03-25T03:25:26.201Z,100469.53
2019-03-25T03:27:57.502Z,100473.05
2019-03-25T03:30:28.916Z,100469.23
2019-03-25T03:33:00.160Z,100466.63
2019-03-25T03:35:31.225Z,100459.77
2019-03-25T03:38:02.411Z,100463.58
2019-03-25T03:40:33.532Z,100464.44
2019-03-25T03:43:05.258Z,100462.37
2019-03-25T03:45:36.357Z,100445.64
2019-03-25T03:48:07.521Z,100446.04
2019-03-25T03:50:39.281Z,100443.39
2019-03-25T03:53:10.433Z,100444.17
2019-03-25T03:55:42.131Z,100446.38
2019-03-25T03:58:13.487Z,100445.99
2019-03-25T04:00:44.569Z,100445.56
2019-03-25T04:03:15.708Z,100449.05
2019-03-25T04:05:46.797Z,100446.50
2019-03-25T04:08:17.896Z,100438.80
2019-03-25T04:10:49.050Z,100439.73
2019-03-25T04:13:20.206Z,100434.52
2019-03-25T04:15:51.244Z,100429.29
2019-03-25T04:18:22.354Z,100420.14
2019-03-25T04:20:53.407Z,100421.77
2019-03-25T04:23:24.478Z,100420.37
2019-03-25T04:25:55.778Z,100421.62
2019-03-25T04:28:26.921Z,100352.72
2019-03-25T04:30:58.093Z,100417.98
2019-03-25T04:33:29.264Z,100419.16
2019-03-25T04:36:00.307Z,100419.09
2019-03-25T04:38:31.457Z,100421.64
2019-03-25T04:41:02.596Z,100416.52
2019-03-25T04:43:35.075Z,100405.86
2019-03-25T04:46:06.270Z,100404.52
2019-03-25T04:48:37.264Z,100402.84
2019-03-25T04:51:08.908Z,100393.44
2019-03-25T04:53:40.130Z,100389.20
2019-03-25T04:56:11.202Z,100383.12
2019-03-25T04:58:42.330Z,100387.48
2019-03-25T05:01:13.475Z,100380.73
2019-03-25T05:03:44.639Z,100379.95
2019-03-25T05:06:15.708Z,100375.34
2019-03-25T05:08:46.791Z,100380.48
2019-03-25T05:11:17.935Z,100387.48
2019-03-25T05:13:49.076Z,100386.72
2019-03-25T05:16:20.235Z,100379.50
2019-03-25T05:18:51.207Z,100380.88
2019-03-25T05:21:22.515Z,100386.08
2019-03-25T05:23:53.667Z,100384.38
2019-03-25T05:26:24.754Z,100390.44
2019-03-25T05:28:55.846Z,100383.61
2019-03-25T05:31:26.976Z,100379.34
2019-03-25T05:33:58.180Z,100392.72
2019-03-25T05:36:29.393Z,100388.88
2019-03-25T05:39:00.473Z,100384.18
2019-03-25T05:41:31.624Z,100381.62
2019-03-25T05:44:02.849Z,100379.95
2019-03-25T05:46:33.815Z,100379.08
2019-03-25T05:49:04.874Z,100388.97
2019-03-25T05:51:35.960Z,100381.66
2019-03-25T05:54:07.207Z,100374.38
2019-03-25T05:56:38.423Z,100379.06
2019-03-25T05:59:09.487Z,100384.23
2019-03-25T06:01:40.505Z,100379.52
2019-03-25T06:04:11.679Z,100384.70
2019-03-25T06:06:42.803Z,100373.55
2019-03-25T06:09:13.894Z,100371.86
2019-03-25T06:11:45.290Z,100356.88
2019-03-25T06:14:16.286Z,100346.58
2019-03-25T06:16:47.356Z,100342.80
2019-03-25T06:19:18.523Z,100339.86
2019-03-25T06:21:49.621Z,100333.05
2019-03-25T06:24:20.834Z,100333.51
2019-03-25T06:26:51.964Z,100338.27
2019-03-25T06:29:23.194Z,100347.33
2019-03-25T06:31:54.270Z,100349.97
2019-03-25T06:34:25.382Z,100344.90
2019-03-25T06:36:56.887Z,100347.97
2019-03-25T06:39:28.381Z,100367.27
2019-03-25T06:42:00.274Z,100366.87
2019-03-25T06:44:31.339Z,100361.27
2019-03-25T06:47:02.640Z,100373.33
2019-03-25T06:49:34.054Z,100369.90
2019-03-25T06:52:05.432Z,100364.34
2019-03-25T06:54:36.594Z,100359.69
2019-03-25T06:57:08.059Z,100360.97
2019-03-25T06:59:39.056Z,100357.66
2019-03-25T07:02:10.229Z,100363.39
2019-03-25T07:04:41.736Z,100358.41
2019-03-25T07:07:12.874Z,100354.64
2019-03-25T07:09:43.900Z,100358.92
2019-03-25T07:12:15.215Z,100362.34
2019-03-25T07:14:46.421Z,100364.97
2019-03-25T07:17:18.820Z,100361.97
2019-03-25T07:19:49.893Z,100364.68
2019-03-25T07:22:20.963Z,100375.13
2019-03-25T07:24:52.097Z,100371.98
2019-03-25T07:27:23.238Z,100376.63
2019-03-25T07:29:54.312Z,100383.52
2019-03-25T07:32:25.551Z,100369.72
2019-03-25T07:34:56.978Z,100393.73
2019-03-25T07:37:28.037Z,100390.17
2019-03-25T07:39:59.162Z,100389.36
2019-03-25T07:42:30.362Z,100395.39
2019-03-25T07:45:01.359Z,100404.49
2019-03-25T07:47:32.816Z,100408.02
2019-03-25T07:50:04.295Z,100402.94
2019-03-25T07:52:35.421Z,100402.07
2019-03-25T07:55:06.994Z,100414.52
2019-03-25T07:57:47.683Z,100416.53
2019-03-25T08:00:14.087Z,100420.84
2019-03-25T08:02:46.173Z,100409.56
2019-03-25T08:05:17.486Z,100410.56
2019-03-25T08:07:48.526Z,100416.30
2019-03-25T08:10:33.076Z,100411.88
2019-03-25T08:13:04.335Z,100410.13
2019-03-25T08:15:36.546Z,100407.48
2019-03-25T08:18:08.191Z,100402.56
2019-03-25T08:20:39.368Z,100396.27
2019-03-25T08:23:10.472Z,100395.41
2019-03-25T08:25:41.660Z,100402.64
2019-03-25T08:28:13.008Z,100393.13
2019-03-25T08:30:44.307Z,100403.05
2019-03-25T08:33:15.526Z,100395.59
2019-03-25T08:35:47.544Z,100403.94
2019-03-25T08:38:19.015Z,100404.31
2019-03-25T08:40:50.381Z,100408.62
2019-03-25T08:43:21.572Z,100401.62
2019-03-25T08:45:52.837Z,100398.27
2019-03-25T08:48:24.049Z,100396.75
2019-03-25T08:50:55.128Z,100406.27
2019-03-25T08:53:26.255Z,100398.46
2019-03-25T08:55:57.345Z,100411.93
2019-03-25T08:58:28.528Z,100408.61
2019-03-25T09:00:59.741Z,100409.13
2019-03-25T09:03:30.940Z,100410.88
2019-03-25T09:06:03.408Z,100401.96
2019-03-25T09:08:34.527Z,100413.53
2019-03-25T09:11:07.194Z,100399.17
2019-03-25T09:13:38.450Z,100402.58
2019-03-25T09:16:09.787Z,100406.93
2019-03-25T09:18:40.960Z,100405.45
2019-03-25T09:21:13.168Z,100408.55
2019-03-25T09:23:44.754Z,100403.19
2019-03-25T09:26:16.129Z,100397.98
2019-03-25T09:28:47.580Z,100406.44
2019-03-25T09:31:21.331Z,100416.23
2019-03-25T09:33:52.722Z,100405.22
2019-03-25T09:36:24.640Z,100409.39
2019-03-25T09:38:56.624Z,100405.65
2019-03-25T09:41:27.788Z,100395.81
2019-03-25T09:43:58.856Z,100380.63
2019-03-25T09:46:30.095Z,100390.05
2019-03-25T09:49:01.356Z,100397.98
2019-03-25T09:51:32.692Z,100398.50
2019-03-25T09:54:04.235Z,100399.30
2019-03-25T09:56:35.437Z,100388.91
2019-03-25T09:59:07.019Z,100390.80
2019-03-25T10:01:38.318Z,100387.94
2019-03-25T10:04:09.574Z,100383.70
2019-03-25T10:06:40.775Z,100397.61
2019-03-25T10:09:13.033Z,100395.83
2019-03-25T10:11:44.347Z,100389.36
2019-03-25T10:14:15.541Z,100397.70
2019-03-25T10:16:46.766Z,100408.66
2019-03-25T10:19:17.937Z,100411.93
2019-03-25T10:21:49.084Z,100418.98
2019-03-25T10:24:27.580Z,100418.59
2019-03-25T10:26:53.528Z,100427.81
2019-03-25T10:29:24.638Z,100427.59
2019-03-25T10:31:55.751Z,100437.36
2019-03-25T10:34:27.595Z,100458.03
2019-03-25T10:36:58.760Z,100457.16
2019-03-25T10:39:29.900Z,100444.24
2019-03-25T10:42:01.107Z,100433.03
2019-03-25T10:44:32.233Z,100429.56
2019-03-25T10:47:03.441Z,100417.49
2019-03-25T10:49:35.892Z,100409.27
2019-03-25T10:52:07.307Z,100405.77
2019-03-25T10:54:38.657Z,100396.33
2019-03-25T10:57:10.065Z,100400.86
2019-03-25T10:59:40.996Z,100411.56
2019-03-25T11:02:12.135Z,100402.02
2019-03-25T11:04:43.297Z,100425.72
2019-03-25T11:07:14.673Z,100436.08
2019-03-25T11:09:46.238Z,100435.33
2019-03-25T11:12:17.349Z,100435.02
2019-03-25T11:14:48.704Z,100450.19
2019-03-25T11:17:19.845Z,100442.91
2019-03-25T11:19:50.991Z,100451.59
2019-03-25T11:22:22.260Z,100433.87
2019-03-25T11:24:53.449Z,100444.23
2019-03-25T11:27:24.530Z,100442.42
2019-03-25T11:29:55.694Z,100444.14
2019-03-25T11:32:27.244Z,100455.81
2019-03-25T11:34:58.655Z,100450.25
2019-03-25T11:37:29.731Z,100458.02
2019-03-25T11:40:00.908Z,100441.22
2019-03-25T11:42:32.160Z,100438.65
2019-03-25T11:45:03.679Z,100438.22
2019-03-25T11:47:34.896Z,100423.11
2019-03-25T11:50:06.420Z,100429.55
2019-03-25T11:52:37.763Z,100420.02
2019-03-25T11:55:09.655Z,100431.64
2019-03-25T11:57:40.926Z,100422.12
2019-03-25T12:00:13.008Z,100419.12
2019-03-25T12:02:44.195Z,100422.53
2019-03-25T12:05:15.479Z,100422.86
2019-03-25T12:07:47.024Z,100421.20
2019-03-25T12:10:18.424Z,100408.59
2019-03-25T12:12:49.589Z,100412.00
2019-03-25T12:15:20.772Z,100414.13
2019-03-25T12:17:51.942Z,100413.19
2019-03-25T12:20:23.014Z,100413.16
2019-03-25T12:22:54.179Z,100409.73
2019-03-25T12:25:25.359Z,100411.89
2019-03-25T12:27:56.628Z,100399.71
2019-03-25T12:30:27.807Z,100401.88
2019-03-25T12:33:04.032Z,100396.13
2019-03-25T12:35:31.868Z,100410.88
2019-03-25T12:38:02.973Z,100403.55
2019-03-25T12:40:34.460Z,100396.27
2019-03-25T12:43:05.959Z,100399.78
2019-03-25T12:45:37.106Z,100392.38
2019-03-25T12:48:08.301Z,100379.66
2019-03-25T12:50:39.519Z,100376.06
2019-03-25T12:53:10.901Z,100364.81
2019-03-25T12:55:42.062Z,100363.08
2019-03-25T12:58:13.301Z,100373.36
2019-03-25T13:00:45.812Z,100372.36
2019-03-25T13:03:17.406Z,100383.30
2019-03-25T13:05:48.630Z,100405.07
2019-03-25T13:08:19.780Z,100415.73
2019-03-25T13:10:51.253Z,100446.33
2019-03-25T13:13:22.398Z,100453.73
2019-03-25T13:15:53.613Z,100459.69
2019-03-25T13:18:24.784Z,100459.98
2019-03-25T13:20:56.406Z,100453.56
2019-03-25T13:23:27.586Z,100467.84
2019-03-25T13:25:58.690Z,100478.23
2019-03-25T13:28:29.732Z,100478.68
2019-03-25T13:31:00.886Z,100482.54
2019-03-25T13:33:32.074Z,100467.05
2019-03-25T13:36:03.299Z,100458.04
2019-03-25T13:38:34.896Z,100460.59
2019-03-25T13:41:06.095Z,100460.62
2019-03-25T13:43:37.605Z,100466.67
2019-03-25T13:46:08.827Z,100459.33
2019-03-25T13:48:40.032Z,100458.02
2019-03-25T13:51:11.594Z,100474.78
2019-03-25T13:53:42.764Z,100485.09
2019-03-25T13:56:14.456Z,100473.42
2019-03-25T13:58:45.639Z,100477.72
2019-03-25T14:01:17.065Z,100477.23
2019-03-25T14:03:48.190Z,100478.22
2019-03-25T14:06:19.457Z,100486.50
2019-03-25T14:08:50.624Z,100465.78
2019-03-25T14:11:21.943Z,100449.84
2019-03-25T14:13:53.124Z,100458.91
2019-03-25T14:16:24.894Z,100448.11
2019-03-25T14:18:56.388Z,100438.20
2019-03-25T14:21:28.042Z,100438.21
2019-03-25T14:23:59.042Z,100433.45
2019-03-25T14:26:30.225Z,100436.87
2019-03-25T14:29:01.331Z,100439.89
2019-03-25T14:31:32.559Z,100432.55
2019-03-25T14:34:04.127Z,100429.04
2019-03-25T14:36:35.522Z,100431.61
2019-03-25T14:39:07.786Z,100432.79
2019-03-25T14:41:38.989Z,100439.67
2019-03-25T14:44:10.156Z,100453.84
2019-03-25T14:46:41.402Z,100449.50
2019-03-25T14:49:12.616Z,100448.30
2019-03-25T14:51:43.912Z,100445.66
2019-03-25T14:54:15.054Z,100443.91
2019-03-25T14:56:47.356Z,100447.05
2019-03-25T14:59:18.610Z,100432.30
2019-03-25T15:01:49.757Z,100453.93
2019-03-25T15:04:20.945Z,100458.67
2019-03-25T15:06:52.119Z,100461.78
2019-03-25T15:09:23.603Z,100475.22
2019-03-25T15:11:55.138Z,100473.97
2019-03-25T15:14:26.588Z,100484.80
2019-03-25T15:16:57.746Z,100490.41
2019-03-25T15:19:29.054Z,100494.30
2019-03-25T15:22:00.614Z,100487.38
2019-03-25T15:24:31.759Z,100500.34
2019-03-25T15:27:03.047Z,100498.61
2019-03-25T15:29:34.309Z,100504.66
2019-03-25T15:32:05.990Z,100495.16
2019-03-25T15:34:37.314Z,100502.05
2019-03-25T15:37:09.319Z,100515.02
2019-03-25T15:39:46.765Z,100507.22
2019-03-25T15:42:13.559Z,100508.94
2019-03-25T15:44:45.056Z,100500.70
2019-03-25T15:47:16.900Z,100498.11
2019-03-25T15:49:48.124Z,100495.07
2019-03-25T15:52:19.228Z,100492.95
2019-03-25T15:54:50.491Z,100505.46
2019-03-25T15:57:22.043Z,100513.69
2019-03-25T15:59:53.228Z,100529.23
2019-03-25T16:02:24.506Z,100530.11
2019-03-25T16:04:55.615Z,100526.24
2019-03-25T16:07:27.244Z,100537.88
2019-03-25T16:09:58.723Z,100541.78
2019-03-25T16:12:29.918Z,100540.05
2019-03-25T16:15:01.116Z,100549.96
2019-03-25T16:17:32.590Z,100548.66
2019-03-25T16:20:03.829Z,100561.19
2019-03-25T16:22:34.992Z,100568.52
2019-03-25T16:25:06.787Z,100572.42
2019-03-25T16:27:37.974Z,100582.34
2019-03-25T16:30:09.352Z,100603.52
2019-03-25T16:32:40.560Z,100580.09
2019-03-25T16:35:11.755Z,100587.42
2019-03-25T16:37:43.327Z,100594.70
2019-03-25T16:40:14.436Z,100601.12
2019-03-25T16:42:45.575Z,100604.58
2019-03-25T16:45:16.981Z,100602.84
2019-03-25T16:47:48.244Z,100601.52
2019-03-25T16:50:19.579Z,100608.40
2019-03-25T16:52:50.817Z,100598.52
2019-03-25T16:55:22.590Z,100605.78
2019-03-25T16:57:53.807Z,100606.25
2019-03-25T17:00:27.688Z,100608.82
2019-03-25T17:02:58.053Z,100620.02
2019-03-25T17:05:29.271Z,100612.70
2019-03-25T17:08:00.366Z,100627.80
2019-03-25T17:10:31.441Z,100639.84
2019-03-25T17:13:02.820Z,100635.08
2019-03-25T17:15:33.995Z,100625.48
2019-03-25T17:18:05.508Z,100621.16
2019-03-25T17:20:36.660Z,100630.63
2019-03-25T17:23:08.602Z,100644.03
2019-03-25T17:25:39.785Z,100656.94
2019-03-25T17:28:11.043Z,100666.36
2019-03-25T17:30:42.226Z,100672.79
2019-03-25T17:33:13.467Z,100680.08
2019-03-25T17:35:44.710Z,100686.01
2019-03-25T17:38:16.274Z,100677.27
2019-03-25T17:40:47.442Z,100668.96
2019-03-25T17:43:18.698Z,100661.56
2019-03-25T17:45:49.877Z,100669.78
2019-03-25T17:48:21.764Z,100661.15
2019-03-25T17:50:53.123Z,100668.40
2019-03-25T17:53:25.030Z,100674.78
2019-03-25T17:55:56.270Z,100689.79
2019-03-25T17:58:27.759Z,100684.64
2019-03-25T18:01:19.362Z,100688.91
2019-03-25T18:03:51.749Z,100700.45
2019-03-25T18:06:23.951Z,100701.72
2019-03-25T18:08:56.104Z,100710.23
2019-03-25T18:11:28.764Z,100718.82
2019-03-25T18:14:00.965Z,100719.28
2019-03-25T18:16:32.137Z,100731.77
2019-03-25T18:19:03.234Z,100721.50
2019-03-25T18:21:34.786Z,100723.92
2019-03-25T18:24:05.986Z,100726.02
2019-03-25T18:26:37.299Z,100733.41
2019-03-25T18:29:08.850Z,100739.36
2019-03-25T18:31:43.818Z,100746.64
2019-03-25T18:34:13.152Z,100754.31
2019-03-25T18:36:44.432Z,100758.52
2019-03-25T18:39:15.921Z,100764.11
2019-03-25T18:41:47.455Z,100763.20
2019-03-25T18:44:18.693Z,100772.30
2019-03-25T18:46:49.831Z,100770.27
2019-03-25T18:49:21.047Z,100766.41
2019-03-25T18:51:52.293Z,100743.38
2019-03-25T18:54:23.604Z,100781.05
2019-03-25T18:56:55.210Z,100786.92
2019-03-25T18:59:26.484Z,100789.37
2019-03-25T19:01:58.124Z,100792.73
2019-03-25T19:04:29.193Z,100792.66
2019-03-25T19:07:00.564Z,100797.79
2019-03-25T19:09:31.922Z,100801.28
2019-03-25T19:12:03.119Z,100805.61
2019-03-25T19:14:34.374Z,100809.77
2019-03-25T19:17:05.732Z,100821.00
2019-03-25T19:19:36.944Z,100825.73
2019-03-25T19:22:08.185Z,100821.11
2019-03-25T19:24:39.263Z,100822.78
2019-03-25T19:27:10.479Z,100833.67
2019-03-25T19:29:42.011Z,100834.63
2019-03-25T19:32:13.401Z,100832.11
2019-03-25T19:34:44.695Z,100840.08
2019-03-25T19:37:19.067Z,100838.77
2019-03-25T19:39:50.181Z,100839.66
2019-03-25T19:42:21.249Z,100845.72
2019-03-25T19:44:52.344Z,100845.22
2019-03-25T19:47:23.428Z,100851.67
2019-03-25T19:49:54.909Z,100861.00
2019-03-25T19:52:26.072Z,100870.46
2019-03-25T19:54:58.079Z,100866.62
2019-03-25T19:57:29.808Z,100868.84
2019-03-25T20:00:01.253Z,100875.06
2019-03-25T20:02:32.326Z,100887.58
2019-03-25T20:05:03.674Z,100886.72
2019-03-25T20:07:34.825Z,100890.24
2019-03-25T20:10:06.579Z,100897.59
2019-03-25T20:12:38.013Z,100908.39
2019-03-25T20:15:09.386Z,100914.04
2019-03-25T20:17:40.575Z,100910.55
2019-03-25T20:20:11.930Z,100926.06
2019-03-25T20:22:43.061Z,100930.80
2019-03-25T20:25:14.145Z,100927.70
2019-03-25T20:27:45.355Z,100931.07
2019-03-25T20:30:16.687Z,100941.34
2019-03-25T20:32:47.982Z,100936.92
2019-03-25T20:35:19.132Z,100942.49
2019-03-25T20:37:50.344Z,100938.02
2019-03-25T20:40:21.572Z,100937.88
2019-03-25T20:42:53.359Z,100946.75
2019-03-25T20:45:24.560Z,100956.09
2019-03-25T20:47:55.846Z,100951.72
2019-03-25T20:50:27.113Z,100953.28
2019-03-25T20:52:58.255Z,100955.92
2019-03-25T20:55:29.398Z,100967.11
2019-03-25T20:58:00.692Z,100973.45
2019-03-25T21:00:55.576Z,100967.38
2019-03-25T21:03:26.890Z,100981.45
2019-03-25T21:05:58.153Z,100989.66
2019-03-25T21:08:29.314Z,100994.74
2019-03-25T21:11:00.434Z,100992.23
2019-03-25T21:13:31.726Z,100999.94
2019-03-25T21:16:03.321Z,101013.72
2019-03-25T21:18:34.590Z,101001.33
2019-03-25T21:21:05.827Z,101006.02
2019-03-25T21:23:37.094Z,101008.46
2019-03-25T21:26:10.940Z,101008.03
2019-03-25T21:28:41.772Z,101009.75
2019-03-25T21:31:13.530Z,101011.44
2019-03-25T21:33:44.673Z,101013.12
2019-03-25T21:36:15.948Z,101014.84
2019-03-25T21:38:47.150Z,101008.92
2019-03-25T21:41:18.256Z,101014.48
2019-03-25T21:43:49.555Z,101016.70
2019-03-25T21:46:20.711Z,101024.00
2019-03-25T21:48:52.065Z,101030.98
2019-03-25T21:51:23.113Z,101042.66
2019-03-25T21:53:54.399Z,101043.59
2019-03-25T21:56:25.695Z,101041.97
2019-03-25T21:58:56.851Z,101041.58
2019-03-25T22:01:27.953Z,101045.45
2019-03-25T22:03:59.464Z,101040.95
2019-03-25T22:06:30.633Z,101047.84
2019-03-25T22:09:01.879Z,101042.70
2019-03-25T22:11:33.064Z,101047.05
2019-03-25T22:14:04.261Z,101046.28
2019-03-25T22:16:35.486Z,101050.71
2019-03-25T22:19:06.576Z,101056.80
2019-03-25T22:21:37.637Z,101056.86
2019-03-25T22:24:08.773Z,101064.33
2019-03-25T22:26:39.938Z,101061.66
2019-03-25T22:29:11.125Z,101062.95
2019-03-25T22:31:42.227Z,101068.11
2019-03-25T22:34:13.629Z,101068.97
2019-03-25T22:36:44.829Z,101067.28
2019-03-25T22:39:15.927Z,101074.56
2019-03-25T22:41:47.186Z,101080.25
2019-03-25T22:44:18.375Z,101083.33
2019-03-25T22:46:49.849Z,101086.86
2019-03-25T22:49:21.018Z,101088.92
2019-03-25T22:51:52.101Z,101092.92
2019-03-25T22:54:23.490Z,101092.06
2019-03-25T22:56:54.579Z,101096.36
2019-03-25T22:59:25.694Z,101094.67
2019-03-25T23:01:56.822Z,101099.80
2019-03-25T23:04:27.961Z,101108.72
2019-03-25T23:06:59.138Z,101104.44
2019-03-25T23:09:30.218Z,101100.27
2019-03-25T23:12:01.614Z,101105.44
2019-03-25T23:14:32.711Z,101108.94
2019-03-25T23:17:03.804Z,101110.99
2019-03-25T23:19:35.016Z,101115.27
2019-03-25T23:22:06.372Z,101112.22
2019-03-25T23:24:37.545Z,101121.22
2019-03-25T23:27:08.721Z,101121.59
2019-03-25T23:29:39.884Z,101124.10
2019-03-25T23:32:10.917Z,101121.03
2019-03-25T23:34:42.024Z,101126.09
2019-03-25T23:37:13.188Z,101125.66
2019-03-25T23:39:44.480Z,101130.68
2019-03-25T23:42:15.750Z,101124.16
2019-03-25T23:44:47.206Z,101131.04
2019-03-25T23:47:18.736Z,101132.63
2019-03-25T23:49:49.805Z,101126.92
2019-03-25T23:52:21.397Z,101126.42
2019-03-25T23:54:52.752Z,101133.62
2019-03-25T23:57:23.942Z,101124.77
2019-03-25T23:59:55.195Z,101122.52
